createdAt,value
2018-01-03T01:00:14.560Z,55.23
2018-01-03T01:02:47.190Z,69.60
2018-01-03T01:49:29.642Z,10.37
2018-01-03T01:51:57.373Z,11.80
2018-01-03T01:54:27.610Z,8.20
2018-01-03T01:56:56.467Z,8.53
2018-01-03T01:59:24.294Z,11.80
2018-01-03T02:01:52.546Z,13.93
2018-01-03T02:04:20.334Z,10.37
2018-01-03T02:06:48.088Z,14.57
2018-01-03T02:09:15.912Z,9.40
2018-01-03T02:11:43.593Z,12.30
2018-01-03T02:14:11.553Z,11.67
2018-01-03T02:16:40.306Z,9.50
2018-01-03T02:19:08.605Z,17.40
2018-01-03T02:21:37.412Z,7.10
2018-01-03T02:24:05.104Z,15.67
2018-01-03T02:26:32.833Z,11.77
2018-01-03T02:29:00.555Z,20.10
2018-01-03T02:31:28.501Z,17.73
2018-01-03T02:33:56.281Z,10.13
2018-01-03T02:36:24.388Z,12.67
2018-01-03T02:38:52.097Z,15.83
2018-01-03T02:41:19.796Z,13.47
2018-01-03T02:43:47.530Z,13.20
2018-01-03T02:46:15.486Z,15.33
2018-01-03T02:48:43.197Z,11.83
2018-01-03T02:51:10.850Z,15.00
2018-01-03T02:53:38.544Z,12.10
2018-01-03T02:56:06.216Z,7.87
2018-01-03T02:58:34.286Z,12.27
2018-01-03T03:01:02.372Z,9.23
2018-01-03T03:03:30.120Z,5.63
2018-01-03T03:05:57.976Z,10.77
2018-01-03T03:08:26.070Z,10.30
2018-01-03T03:10:53.791Z,7.43
2018-01-03T03:13:21.505Z,9.90
2018-01-03T03:15:49.565Z,10.00
2018-01-03T03:18:17.246Z,7.03
2018-01-03T03:20:44.990Z,10.10
2018-01-03T03:23:12.647Z,14.73
2018-01-03T03:25:40.310Z,9.27
2018-01-03T03:28:08.487Z,8.47
2018-01-03T03:30:36.194Z,6.73
2018-01-03T03:33:04.023Z,9.33
2018-01-03T03:35:31.713Z,7.97
2018-01-03T03:37:59.361Z,6.33
2018-01-03T03:40:27.150Z,7.53
2018-01-03T03:42:54.854Z,11.63
2018-01-03T03:45:23.038Z,7.63
2018-01-03T03:47:50.880Z,6.23
2018-01-03T03:50:18.510Z,8.27
2018-01-03T03:52:46.558Z,3.73
2018-01-03T03:55:14.265Z,3.50
2018-01-03T03:57:41.993Z,0.70
2018-01-03T04:00:09.722Z,1.67
2018-01-03T04:02:38.202Z,1.30
2018-01-03T04:05:05.945Z,3.00
2018-01-03T04:07:33.604Z,2.00
2018-01-03T04:10:01.359Z,3.63
2018-01-03T04:12:29.148Z,2.67
2018-01-03T04:14:57.841Z,0.93
2018-01-03T04:17:25.583Z,0.60
2018-01-03T04:19:53.311Z,44.90
2018-01-03T04:22:21.039Z,2.50
2018-01-03T04:24:48.742Z,2.43
2018-01-03T04:27:16.404Z,2.50
2018-01-03T04:29:44.129Z,3.27
2018-01-03T04:32:12.310Z,6.73
2018-01-03T04:34:40.480Z,1.43
2018-01-03T04:37:08.157Z,1.80
2018-01-03T04:39:36.320Z,1.10
2018-01-03T04:42:04.048Z,2.70
2018-01-03T04:44:31.739Z,1.90
2018-01-03T04:46:59.424Z,5.47
2018-01-03T04:49:27.172Z,4.27
2018-01-03T04:51:55.100Z,2.37
2018-01-03T04:54:23.226Z,3.93
2018-01-03T04:56:51.382Z,6.23
2018-01-03T04:59:19.092Z,6.80
2018-01-03T05:01:46.808Z,4.77
2018-01-03T05:04:14.534Z,8.50
2018-01-03T05:06:42.537Z,8.13
2018-01-03T05:09:10.252Z,12.30
2018-01-03T05:11:37.943Z,12.80
2018-01-03T05:14:05.778Z,7.13
2018-01-03T05:16:33.612Z,9.53
2018-01-03T05:19:01.322Z,13.80
2018-01-03T05:21:29.093Z,15.30
2018-01-03T05:23:56.958Z,14.87
2018-01-03T05:26:24.645Z,12.33
2018-01-03T05:28:52.839Z,24.53
2018-01-03T05:31:20.628Z,12.20
2018-01-03T05:33:48.384Z,14.37
2018-01-03T05:36:16.548Z,17.90
2018-01-03T05:38:44.230Z,11.93
2018-01-03T05:41:12.041Z,17.97
2018-01-03T05:43:40.790Z,15.30
2018-01-03T05:46:09.036Z,16.33
2018-01-03T05:48:36.797Z,19.60
2018-01-03T05:51:04.570Z,13.97
2018-01-03T05:53:33.071Z,16.10
2018-01-03T05:56:03.555Z,24.20
2018-01-03T05:58:31.315Z,15.30
2018-01-03T06:03:30.894Z,8.70
2018-01-03T06:06:00.676Z,17.20
2018-01-03T06:08:28.412Z,16.60
2018-01-03T06:10:59.156Z,22.23
2018-01-03T06:13:26.955Z,21.17
2018-01-03T06:15:54.759Z,15.33
2018-01-03T06:18:22.487Z,22.67
2018-01-03T06:20:50.251Z,19.73
2018-01-03T06:23:17.989Z,14.23
2018-01-03T06:25:45.673Z,13.00
2018-01-03T06:28:13.478Z,17.40
2018-01-03T06:30:41.487Z,18.47
2018-01-03T06:33:12.959Z,20.40
2018-01-03T06:35:40.997Z,20.90
2018-01-03T06:38:08.748Z,12.80
2018-01-03T06:40:36.537Z,22.60
2018-01-03T06:43:04.938Z,17.20
2018-01-03T06:45:36.083Z,15.37
2018-01-03T06:48:05.031Z,10.90
2018-01-03T06:50:34.438Z,16.13
2018-01-03T06:53:03.249Z,15.10
2018-01-03T06:55:31.141Z,14.50
2018-01-03T06:57:59.336Z,19.57
2018-01-03T07:00:28.504Z,21.87
2018-01-03T07:02:58.417Z,15.63
2018-01-03T07:05:27.852Z,12.20
2018-01-03T07:07:56.683Z,12.00
2018-01-03T07:10:24.314Z,7.30
2018-01-03T07:12:51.996Z,14.10
2018-01-03T07:15:19.753Z,9.83
2018-01-03T07:17:47.568Z,8.57
2018-01-03T07:20:15.748Z,13.37
2018-01-03T07:22:43.520Z,7.30
2018-01-03T07:25:11.366Z,7.00
2018-01-03T07:27:39.089Z,5.83
2018-01-03T07:30:09.591Z,5.13
2018-01-03T07:32:37.746Z,9.27
2018-01-03T07:35:12.154Z,7.43
2018-01-03T07:37:41.018Z,11.63
2018-01-03T07:40:08.882Z,7.40
2018-01-03T07:42:36.855Z,12.10
2018-01-03T07:45:04.661Z,13.13
2018-01-03T07:47:32.467Z,5.83
2018-01-03T07:50:00.250Z,6.33
2018-01-03T07:52:27.981Z,7.73
2018-01-03T07:54:55.880Z,5.57
2018-01-03T07:57:23.609Z,7.33
2018-01-03T07:59:51.358Z,18.97
2018-01-03T08:02:19.178Z,12.70
2018-01-03T08:04:46.908Z,7.17
2018-01-03T08:07:15.151Z,3.00
2018-01-03T08:09:43.096Z,9.63
2018-01-03T08:12:10.785Z,6.90
2018-01-03T08:14:38.533Z,9.00
2018-01-03T08:17:06.396Z,14.63
2018-01-03T08:19:34.139Z,8.67
2018-01-03T08:22:01.922Z,8.97
2018-01-03T08:24:29.659Z,14.20
2018-01-03T08:27:00.181Z,10.27
2018-01-03T08:29:29.224Z,17.03
2018-01-03T08:31:56.874Z,13.83
2018-01-03T08:34:26.599Z,10.13
2018-01-03T08:36:55.935Z,14.43
2018-01-03T08:39:24.553Z,15.00
2018-01-03T08:41:52.438Z,8.20
2018-01-03T08:44:26.513Z,20.43
2018-01-03T08:46:54.364Z,14.73
2018-01-03T08:49:29.040Z,13.90
2018-01-03T08:52:06.037Z,9.77
2018-01-03T08:54:36.204Z,8.40
2018-01-03T08:57:04.055Z,10.53
2018-01-03T08:59:31.751Z,10.50
2018-01-03T09:01:59.410Z,10.93
2018-01-03T09:04:30.545Z,8.40
2018-01-03T09:06:58.436Z,9.20
2018-01-03T09:09:26.065Z,28.37
2018-01-03T09:11:53.737Z,17.67
2018-01-03T09:14:21.475Z,15.50
2018-01-03T09:16:49.164Z,11.13
2018-01-03T09:19:18.706Z,16.00
2018-01-03T09:21:47.635Z,18.63
2018-01-03T09:24:16.605Z,11.20
2018-01-03T09:26:44.382Z,24.13
2018-01-03T09:29:12.592Z,14.37
2018-01-03T09:31:40.306Z,19.50
2018-01-03T09:34:09.543Z,13.97
2018-01-03T09:36:39.424Z,12.53
2018-01-03T09:39:08.116Z,17.90
2018-01-03T09:41:35.751Z,20.33
2018-01-03T09:44:05.477Z,10.00
2018-01-03T09:46:36.131Z,6.90
2018-01-03T09:49:04.299Z,15.40
2018-01-03T09:51:33.169Z,13.80
2018-01-03T09:54:00.870Z,26.13
2018-01-03T09:56:28.568Z,12.53
2018-01-03T09:58:57.213Z,11.90
2018-01-03T10:01:26.567Z,20.30
2018-01-03T10:03:54.844Z,19.00
2018-01-03T10:06:22.785Z,14.00
2018-01-03T10:08:53.309Z,6.10
2018-01-03T10:11:26.433Z,16.27
2018-01-03T10:13:54.200Z,14.07
2018-01-03T10:16:24.285Z,14.63
2018-01-03T10:18:53.272Z,11.53
2018-01-03T10:21:21.529Z,11.73
2018-01-03T10:23:49.316Z,16.03
2018-01-03T10:26:16.974Z,11.97
2018-01-03T10:28:46.290Z,11.43
2018-01-03T10:31:14.307Z,20.40
2018-01-03T10:33:43.203Z,23.87
2018-01-03T10:36:10.945Z,7.87
2018-01-03T10:38:47.332Z,11.97
2018-01-03T10:41:16.461Z,22.53
2018-01-03T10:43:59.095Z,8.43
2018-01-03T10:46:27.384Z,15.07
2018-01-03T10:48:55.100Z,7.73
2018-01-03T10:51:22.965Z,13.40
2018-01-03T10:53:50.875Z,14.83
2018-01-03T10:56:20.678Z,17.67
2018-01-03T10:58:48.851Z,19.10
2018-01-03T11:01:16.564Z,9.13
2018-01-03T11:03:44.352Z,18.63
2018-01-03T11:06:12.012Z,16.73
2018-01-03T11:08:41.668Z,18.40
2018-01-03T11:11:10.077Z,13.77
2018-01-03T11:13:38.688Z,11.00
2018-01-03T11:16:08.502Z,16.33
2018-01-03T11:18:38.406Z,10.80
2018-01-03T11:21:06.138Z,15.50
2018-01-03T11:23:34.148Z,10.23
2018-01-03T11:26:01.902Z,7.27
2018-01-03T11:28:30.839Z,12.50
2018-01-03T11:31:02.337Z,18.63
2018-01-03T11:33:38.426Z,16.30
2018-01-03T15:00:19.760Z,10.53
2018-01-03T15:08:43.437Z,23.63
2018-01-03T15:11:18.844Z,17.33
2018-01-03T15:13:49.673Z,22.73
2018-01-03T15:18:56.354Z,16.43
2018-01-03T15:22:17.378Z,12.50
2018-01-03T15:24:53.869Z,30.13
2018-01-03T15:27:24.278Z,22.47
2018-01-03T15:30:04.759Z,18.27
2018-01-03T15:32:33.698Z,26.53
2018-01-03T15:38:20.056Z,21.20
2018-01-03T15:40:49.765Z,23.17
2018-01-03T15:43:29.239Z,21.87
2018-01-03T15:46:02.926Z,12.87
2018-01-03T15:48:35.921Z,15.97
2018-01-03T15:54:24.485Z,16.13
2018-01-03T15:57:04.422Z,24.00
2018-01-03T15:59:51.703Z,9.23
2018-01-03T16:02:32.363Z,24.23
2018-01-03T16:08:20.263Z,15.37
2018-01-03T16:10:47.993Z,27.93
2018-01-03T16:13:26.896Z,16.80
2018-01-03T16:16:00.465Z,17.90
2018-01-03T17:12:41.639Z,16.80
2018-01-03T17:50:31.508Z,15.03
2018-01-03T17:58:19.330Z,26.47
2018-01-03T18:03:29.770Z,23.63
2018-01-03T18:08:55.491Z,34.07
2018-01-03T18:54:17.500Z,12.90
2018-01-03T18:56:45.525Z,23.80
2018-01-03T18:59:13.237Z,39.27
2018-01-03T19:01:44.417Z,18.57
2018-01-03T19:04:17.658Z,16.20
2018-01-03T19:06:59.166Z,21.87
2018-01-03T19:09:30.282Z,20.83
2018-01-03T19:12:04.513Z,34.37
2018-01-03T19:14:40.824Z,20.00
2018-01-03T19:17:08.582Z,17.83
2018-01-03T19:19:37.884Z,14.77
2018-01-03T19:22:05.733Z,18.33
2018-01-03T19:24:33.536Z,27.00
2018-01-03T19:27:01.389Z,26.93
2018-01-03T19:29:29.153Z,29.17
2018-01-03T19:32:04.069Z,12.00
2018-01-03T19:34:35.574Z,27.13
2018-01-03T19:37:05.791Z,38.43
2018-01-03T19:39:33.407Z,21.40
2018-01-03T19:42:01.112Z,25.43
2018-01-03T19:44:29.505Z,15.47
2018-01-03T19:46:59.921Z,21.47
2018-01-03T19:49:27.661Z,23.10
2018-01-03T19:51:55.436Z,15.83
2018-01-03T19:54:23.195Z,21.93
2018-01-03T19:56:51.466Z,16.43
2018-01-03T19:59:19.426Z,30.83
2018-01-03T20:01:47.364Z,35.80
2018-01-03T20:04:15.047Z,23.37
2018-01-03T20:06:44.650Z,15.57
2018-01-03T20:09:12.535Z,20.50
2018-01-03T20:11:40.551Z,22.47
2018-01-03T20:14:08.272Z,27.57
2018-01-03T20:16:36.129Z,17.13
2018-01-03T20:19:04.473Z,24.97
2018-01-03T20:21:32.684Z,23.57
2018-01-03T20:24:00.392Z,24.07
2018-01-03T20:26:28.079Z,20.57
2018-01-03T20:28:57.769Z,30.47
2018-01-03T20:31:27.203Z,13.93
2018-01-03T20:33:54.969Z,19.30
2018-01-03T20:36:23.049Z,23.63
2018-01-03T20:38:50.815Z,18.90
2018-01-03T20:41:20.377Z,22.27
2018-01-03T20:43:48.121Z,21.20
2018-01-03T20:46:16.055Z,26.93
2018-01-03T20:48:43.796Z,18.20
2018-01-03T20:51:11.825Z,15.63
2018-01-03T20:53:41.052Z,37.83
2018-01-03T20:56:08.682Z,25.47
2018-01-03T20:58:39.496Z,23.60
2018-01-03T21:01:08.635Z,16.80
2018-01-03T21:03:36.524Z,30.43
2018-01-03T21:06:06.666Z,22.27
2018-01-03T21:08:34.285Z,19.13
2018-01-03T21:11:01.938Z,22.90
2018-01-03T21:13:29.921Z,35.10
2018-01-03T21:15:57.554Z,21.20
2018-01-03T21:18:25.136Z,16.97
2018-01-03T21:20:53.067Z,12.03
2018-01-03T21:23:20.732Z,17.53
2018-01-03T21:25:48.401Z,29.20
2018-01-03T21:28:16.148Z,14.73
2018-01-03T21:30:43.780Z,24.47
2018-01-03T21:33:11.402Z,32.13
2018-01-03T21:35:39.132Z,19.10
2018-01-03T21:38:06.876Z,29.27
2018-01-03T21:40:34.816Z,22.80
2018-01-03T21:43:03.241Z,14.30
2018-01-03T21:45:30.830Z,14.83
2018-01-03T21:47:58.429Z,20.50
2018-01-03T21:50:26.329Z,25.00
2018-01-03T21:52:53.904Z,20.07
2018-01-03T21:55:21.470Z,15.60
2018-01-03T21:57:49.110Z,23.00
2018-01-03T22:00:16.829Z,18.67
2018-01-03T22:02:44.422Z,18.73
2018-01-03T22:05:12.164Z,16.27
2018-01-03T22:07:39.836Z,19.20
2018-01-03T22:10:07.504Z,8.30
2018-01-03T22:12:35.432Z,19.60
2018-01-03T22:15:03.048Z,14.00
2018-01-03T22:17:30.638Z,20.37
2018-01-03T22:19:58.349Z,19.80
2018-01-03T22:22:25.917Z,18.70
2018-01-03T22:24:53.570Z,28.80
2018-01-03T22:27:21.284Z,18.17
2018-01-03T22:29:48.961Z,24.60
2018-01-03T22:32:16.577Z,16.70
2018-01-03T22:34:44.233Z,18.43
2018-01-03T22:37:12.182Z,33.20
2018-01-03T22:39:39.775Z,31.10
2018-01-03T22:42:07.404Z,23.20
2018-01-03T22:44:34.966Z,29.33
2018-01-03T22:47:02.676Z,23.57
2018-01-03T22:49:30.293Z,36.83
2018-01-03T22:51:58.143Z,32.20
2018-01-03T22:54:25.765Z,34.30
2018-01-03T22:56:53.385Z,20.10
2018-01-03T22:59:21.348Z,31.37
2018-01-03T23:01:49.247Z,21.87
2018-01-03T23:04:16.939Z,38.63
2018-01-03T23:06:44.648Z,23.50
2018-01-03T23:09:12.254Z,25.97
2018-01-03T23:11:39.909Z,29.40
2018-01-03T23:14:07.589Z,37.33
2018-01-03T23:16:35.322Z,44.43
2018-01-03T23:19:03.084Z,23.67
2018-01-03T23:21:30.763Z,35.47
2018-01-03T23:23:58.416Z,34.23
2018-01-03T23:26:26.033Z,38.93
2018-01-03T23:28:53.948Z,20.27
2018-01-03T23:31:21.611Z,39.77
2018-01-03T23:33:49.194Z,40.97
2018-01-03T23:36:16.914Z,39.33
2018-01-03T23:38:44.543Z,43.17
2018-01-03T23:41:12.223Z,31.00
2018-01-03T23:43:39.885Z,43.57
2018-01-03T23:46:07.511Z,39.67
2018-01-03T23:48:35.110Z,49.73
2018-01-03T23:51:02.736Z,31.47
2018-01-03T23:53:30.642Z,29.63
2018-01-03T23:55:58.345Z,24.73
2018-01-03T23:58:25.966Z,48.93
